createdAt,value
2023-05-18T00:00:14.367Z,77.42
2023-05-18T00:02:42.007Z,78.17
2023-05-18T00:05:10.536Z,80.40
2023-05-18T00:07:37.711Z,80.08
2023-05-18T00:10:05.025Z,79.61
2023-05-18T00:12:32.130Z,79.69
2023-05-18T00:14:59.228Z,78.98
2023-05-18T00:17:26.321Z,79.89
2023-05-18T00:19:53.440Z,80.57
2023-05-18T00:22:20.564Z,83.19
2023-05-18T00:24:48.587Z,82.28
2023-05-18T00:27:15.846Z,82.02
2023-05-18T00:29:42.865Z,85.98
2023-05-18T00:32:12.364Z,86.21
2023-05-18T00:34:39.390Z,86.32
2023-05-18T00:37:06.522Z,85.90
2023-05-18T00:39:33.591Z,86.17
2023-05-18T00:42:03.099Z,84.33
2023-05-18T00:44:30.207Z,82.94
2023-05-18T00:46:57.240Z,83.46
2023-05-18T00:49:24.303Z,82.09
2023-05-18T00:51:51.457Z,83.01
2023-05-18T00:54:19.513Z,83.72
2023-05-18T00:56:48.534Z,81.14
2023-05-18T00:59:16.613Z,81.97
2023-05-18T01:01:46.703Z,81.67
2023-05-18T01:04:16.477Z,82.70
2023-05-18T01:06:43.940Z,81.43
2023-05-18T01:09:12.526Z,80.04
2023-05-18T01:11:58.236Z,80.42
2023-05-18T01:14:34.410Z,80.42
2023-05-18T01:17:28.916Z,80.37
2023-05-18T01:20:26.906Z,81.23
2023-05-18T01:23:15.300Z,81.52
2023-05-18T01:25:50.552Z,80.31
2023-05-18T01:28:20.091Z,80.42
2023-05-18T01:30:47.976Z,81.07
2023-05-18T01:33:15.270Z,80.15
2023-05-18T01:35:48.214Z,79.48
2023-05-18T01:38:22.749Z,79.30
2023-05-18T01:41:08.457Z,80.33
2023-05-18T01:43:36.718Z,79.50
2023-05-18T01:46:19.164Z,79.49
2023-05-18T01:48:52.321Z,79.58
2023-05-18T01:51:21.642Z,78.07
2023-05-18T01:54:00.832Z,77.70
2023-05-18T01:56:28.178Z,80.23
2023-05-18T01:58:55.562Z,80.21
2023-05-18T02:01:24.211Z,78.01
2023-05-18T02:03:51.848Z,77.91
2023-05-18T02:06:19.067Z,78.93
2023-05-18T02:08:46.461Z,78.88
2023-05-18T02:11:13.570Z,79.78
2023-05-18T02:13:41.152Z,77.10
2023-05-18T02:16:08.724Z,79.21
2023-05-18T02:18:36.576Z,77.59
2023-05-18T02:21:04.407Z,78.18
2023-05-18T02:23:32.193Z,76.68
2023-05-18T02:25:59.217Z,75.15
2023-05-18T02:28:26.307Z,74.66
2023-05-18T02:30:53.382Z,73.84
2023-05-18T02:33:26.590Z,75.43
2023-05-18T02:35:54.050Z,75.53
2023-05-18T02:38:21.576Z,73.79
2023-05-18T02:40:48.715Z,73.88
2023-05-18T02:43:17.197Z,73.25
2023-05-18T02:45:45.396Z,74.18
2023-05-18T02:48:12.546Z,72.90
2023-05-18T02:50:39.844Z,73.70
2023-05-18T02:53:07.149Z,74.02
2023-05-18T02:55:34.276Z,74.93
2023-05-18T02:58:15.152Z,75.35
2023-05-18T03:01:12.536Z,73.99
2023-05-18T03:03:47.498Z,73.20
2023-05-18T03:06:16.221Z,72.32
2023-05-18T03:08:44.476Z,73.04
2023-05-18T03:11:13.044Z,73.81
2023-05-18T03:13:40.136Z,71.95
2023-05-18T03:16:07.479Z,73.99
2023-05-18T03:18:35.168Z,72.89
2023-05-18T03:21:03.577Z,74.01
2023-05-18T03:23:30.631Z,73.87
2023-05-18T03:25:57.946Z,74.00
2023-05-18T03:28:28.618Z,74.13
2023-05-18T03:30:55.998Z,76.08
2023-05-18T03:33:23.377Z,74.57
2023-05-18T03:35:52.467Z,73.08
2023-05-18T03:38:19.736Z,71.76
2023-05-18T03:40:54.021Z,71.77
2023-05-18T03:43:21.238Z,74.28
2023-05-18T03:45:48.551Z,76.61
2023-05-18T03:48:16.039Z,77.07
2023-05-18T03:50:43.962Z,76.64
2023-05-18T03:53:11.627Z,77.20
2023-05-18T03:55:38.785Z,78.00
2023-05-18T03:58:05.954Z,77.16
2023-05-18T04:00:33.061Z,75.62
2023-05-18T04:03:00.866Z,74.31
2023-05-18T04:05:28.734Z,73.57
2023-05-18T04:07:57.777Z,73.78
2023-05-18T04:10:24.975Z,75.67
2023-05-18T04:12:52.110Z,73.93
2023-05-18T04:15:19.182Z,72.22
2023-05-18T04:17:46.369Z,72.18
2023-05-18T04:20:14.890Z,73.12
2023-05-18T04:22:48.666Z,73.64
2023-05-18T04:25:17.506Z,72.65
2023-05-18T04:27:50.593Z,71.35
2023-05-18T04:30:19.141Z,71.80
2023-05-18T04:32:46.394Z,73.30
2023-05-18T04:35:13.557Z,75.46
2023-05-18T04:37:41.259Z,72.79
2023-05-18T04:40:17.255Z,72.37
2023-05-18T04:42:48.441Z,73.13
2023-05-18T04:45:23.157Z,73.91
2023-05-18T04:47:54.640Z,73.91
2023-05-18T04:50:24.027Z,72.93
2023-05-18T04:52:52.816Z,75.18
2023-05-18T04:55:29.229Z,76.57
2023-05-18T04:58:10.993Z,75.11
2023-05-18T05:00:38.704Z,72.51
2023-05-18T05:03:06.523Z,71.67
2023-05-18T05:05:34.984Z,70.42
2023-05-18T05:08:02.207Z,71.54
2023-05-18T05:10:30.172Z,70.72
2023-05-18T05:12:57.281Z,71.29
2023-05-18T05:15:25.060Z,69.86
2023-05-18T05:17:52.490Z,71.27
2023-05-18T05:20:19.925Z,72.45
2023-05-18T05:22:47.856Z,73.09
2023-05-18T05:25:17.873Z,76.29
2023-05-18T05:27:45.166Z,75.53
2023-05-18T05:30:13.177Z,76.04
2023-05-18T05:32:42.052Z,76.57
2023-05-18T05:35:09.573Z,78.56
2023-05-18T05:37:37.374Z,80.07
2023-05-18T05:40:06.813Z,79.20
2023-05-18T05:42:39.426Z,76.78
2023-05-18T05:45:08.702Z,74.31
2023-05-18T05:47:43.138Z,71.54
2023-05-18T05:50:10.984Z,71.13
2023-05-18T05:52:38.478Z,71.11
2023-05-18T05:55:06.781Z,72.36
2023-05-18T05:57:33.925Z,69.94
2023-05-18T06:00:01.787Z,69.37
2023-05-18T06:02:32.248Z,69.86
2023-05-18T06:04:59.713Z,72.89
2023-05-18T06:07:27.462Z,72.16
2023-05-18T06:09:54.918Z,70.63
2023-05-18T06:12:22.055Z,70.70
2023-05-18T06:14:49.408Z,71.82
2023-05-18T06:17:16.575Z,71.10
2023-05-18T06:19:44.818Z,69.56
2023-05-18T06:22:12.025Z,68.13
2023-05-18T06:24:46.739Z,67.52
2023-05-18T06:27:36.956Z,67.46
2023-05-18T06:30:20.539Z,68.81
2023-05-18T06:33:10.318Z,69.07
2023-05-18T06:35:37.674Z,69.34
2023-05-18T06:38:05.048Z,67.96
2023-05-18T06:40:32.200Z,67.87
2023-05-18T06:42:59.401Z,67.38
2023-05-18T06:45:36.103Z,69.83
2023-05-18T06:48:19.087Z,68.68
2023-05-18T06:50:46.278Z,69.53
2023-05-18T06:53:13.928Z,69.61
2023-05-18T06:55:41.082Z,66.51
2023-05-18T06:58:08.145Z,64.67
2023-05-18T07:00:35.345Z,63.92
2023-05-18T07:03:03.767Z,64.78
2023-05-18T07:05:31.183Z,67.76
2023-05-18T07:07:58.467Z,65.12
2023-05-18T07:10:25.700Z,63.15
2023-05-18T07:12:52.929Z,67.04
2023-05-18T07:15:20.042Z,66.18
2023-05-18T07:17:47.298Z,67.90
2023-05-18T07:20:14.464Z,69.58
2023-05-18T07:22:41.487Z,70.08
2023-05-18T07:25:09.029Z,72.77
2023-05-18T07:27:36.077Z,73.11
2023-05-18T07:30:03.605Z,72.19
2023-05-18T07:32:30.788Z,72.94
2023-05-18T07:34:57.825Z,73.55
2023-05-18T07:37:24.876Z,78.11
2023-05-18T07:39:52.644Z,76.46
2023-05-18T07:42:19.684Z,76.43
2023-05-18T07:44:46.833Z,74.94
2023-05-18T07:47:13.925Z,74.80
2023-05-18T07:49:40.953Z,75.90
2023-05-18T07:52:08.600Z,75.97
2023-05-18T07:54:35.780Z,80.10
2023-05-18T07:57:04.355Z,85.64
2023-05-18T07:59:31.708Z,89.35
2023-05-18T08:02:00.240Z,88.29
2023-05-18T08:04:27.605Z,87.79
2023-05-18T08:06:55.120Z,87.68
2023-05-18T08:09:22.372Z,87.53
2023-05-18T08:11:51.146Z,88.90
2023-05-18T08:14:18.309Z,89.29
2023-05-18T08:16:45.874Z,86.74
2023-05-18T08:19:13.022Z,86.38
2023-05-18T08:21:40.768Z,88.79
2023-05-18T08:24:09.489Z,88.81
2023-05-18T08:26:36.684Z,86.09
2023-05-18T08:29:09.805Z,84.99
2023-05-18T08:31:38.289Z,85.91
2023-05-18T08:34:06.318Z,88.68
2023-05-18T08:36:35.537Z,88.00
2023-05-18T08:39:03.091Z,87.48
2023-05-18T08:41:32.423Z,85.58
2023-05-18T08:44:38.905Z,85.42
2023-05-18T08:47:10.474Z,85.22
2023-05-18T08:49:38.394Z,83.10
2023-05-18T08:52:08.254Z,81.72
2023-05-18T08:54:38.041Z,79.21
2023-05-18T08:57:09.019Z,79.47
2023-05-18T08:59:41.277Z,80.92
2023-05-18T09:02:09.008Z,80.05
2023-05-18T09:04:38.023Z,80.95
2023-05-18T09:07:06.983Z,83.40
2023-05-18T09:09:35.906Z,81.26
2023-05-18T09:12:04.202Z,83.29
2023-05-18T09:14:32.410Z,80.90
2023-05-18T09:16:59.482Z,77.53
2023-05-18T09:19:26.931Z,80.13
2023-05-18T09:21:54.074Z,77.61
2023-05-18T09:24:24.401Z,75.40
2023-05-18T09:26:51.966Z,74.77
2023-05-18T09:29:21.217Z,73.76
2023-05-18T09:31:48.908Z,72.82
2023-05-18T09:34:19.128Z,74.99
2023-05-18T09:36:57.861Z,78.51
2023-05-18T09:39:25.090Z,82.14
2023-05-18T09:41:59.525Z,82.05
2023-05-18T09:44:34.444Z,81.68
2023-05-18T09:47:02.210Z,84.85
2023-05-18T09:49:31.118Z,87.65
2023-05-18T09:52:00.264Z,88.62
2023-05-18T09:54:27.634Z,87.70
2023-05-18T09:57:08.867Z,88.56
2023-05-18T09:59:37.847Z,88.59
2023-05-18T10:02:06.248Z,84.91
2023-05-18T10:04:43.437Z,89.87
2023-05-18T10:07:15.848Z,88.34
2023-05-18T10:09:45.300Z,87.05
2023-05-18T10:12:14.094Z,87.00
2023-05-18T10:14:45.678Z,88.06
2023-05-18T10:17:16.264Z,89.96
2023-05-18T10:19:44.950Z,89.49
2023-05-18T10:22:21.078Z,89.18
2023-05-18T10:24:52.380Z,87.71
2023-05-18T10:27:28.667Z,87.34
2023-05-18T10:29:58.664Z,87.66
2023-05-18T10:32:26.376Z,87.86
2023-05-18T10:34:55.386Z,88.80
2023-05-18T10:37:31.059Z,89.51
2023-05-18T10:40:00.600Z,89.84
2023-05-18T10:42:30.900Z,90.99
2023-05-18T10:44:58.372Z,92.69
2023-05-18T10:47:26.532Z,94.75
2023-05-18T10:49:54.416Z,95.25
2023-05-18T10:52:21.877Z,93.50
2023-05-18T10:54:49.219Z,94.80
2023-05-18T10:57:20.138Z,95.56
2023-05-18T10:59:48.619Z,95.87
2023-05-18T11:02:18.778Z,96.15
2023-05-18T11:04:51.932Z,95.73
2023-05-18T11:07:21.812Z,95.87
2023-05-18T11:09:49.917Z,95.50
2023-05-18T11:12:20.882Z,94.43
2023-05-18T11:14:53.110Z,92.83
2023-05-18T11:17:25.693Z,92.61
2023-05-18T11:20:06.001Z,93.70
2023-05-18T11:22:47.844Z,90.25
2023-05-18T11:25:28.547Z,88.50
2023-05-18T11:28:02.297Z,86.90
2023-05-18T11:30:31.312Z,86.49
2023-05-18T11:33:15.347Z,87.62
2023-05-18T11:35:57.553Z,82.36
2023-05-18T11:38:47.980Z,79.88
2023-05-18T11:41:42.721Z,80.98
2023-05-18T11:44:12.935Z,77.09
2023-05-18T11:47:03.914Z,80.95
2023-05-18T11:49:54.035Z,77.12
2023-05-18T11:52:23.192Z,76.03
2023-05-18T11:54:54.342Z,77.99
2023-05-18T11:57:35.851Z,78.49
2023-05-18T12:00:10.766Z,79.64
2023-05-18T12:02:45.182Z,76.76
2023-05-18T12:05:13.968Z,73.54
2023-05-18T12:07:41.784Z,73.88
2023-05-18T12:10:11.610Z,72.22
2023-05-18T12:12:40.008Z,71.19
2023-05-18T12:15:09.448Z,76.53
2023-05-18T12:17:42.666Z,80.41
2023-05-18T12:20:11.985Z,82.52
2023-05-18T12:22:40.606Z,82.51
2023-05-18T12:25:08.502Z,81.13
2023-05-18T12:27:43.966Z,79.62
2023-05-18T12:30:22.141Z,76.25
2023-05-18T12:32:51.045Z,75.80
2023-05-18T12:35:25.547Z,76.30
2023-05-18T12:37:55.767Z,75.73
2023-05-18T12:40:23.574Z,76.73
2023-05-18T12:42:57.592Z,75.12
2023-05-18T12:45:28.262Z,72.45
2023-05-18T12:47:56.445Z,72.82
2023-05-18T12:50:28.534Z,72.27
2023-05-18T12:52:56.940Z,79.97
2023-05-18T12:55:28.391Z,77.25
2023-05-18T12:58:18.363Z,76.86
2023-05-18T13:00:47.325Z,77.04
2023-05-18T13:03:20.469Z,76.66
2023-05-18T13:06:05.129Z,75.41
2023-05-18T13:08:33.190Z,75.07
2023-05-18T13:11:12.688Z,73.70
2023-05-18T13:13:57.372Z,72.25
2023-05-18T13:16:24.549Z,68.65
2023-05-18T13:18:59.313Z,71.01
2023-05-18T13:21:26.972Z,73.13
2023-05-18T13:23:54.181Z,74.97
2023-05-18T13:26:23.125Z,71.49
2023-05-18T13:28:53.308Z,68.96
2023-05-18T13:31:21.162Z,68.62
2023-05-18T13:33:49.717Z,67.73
2023-05-18T13:36:17.873Z,69.38
2023-05-18T13:38:44.935Z,68.26
2023-05-18T13:41:14.999Z,69.47
2023-05-18T13:43:43.001Z,66.81
2023-05-18T13:46:10.321Z,70.03
2023-05-18T13:48:37.686Z,72.18
2023-05-18T13:51:04.898Z,69.17
2023-05-18T13:53:32.091Z,72.04
2023-05-18T13:55:59.136Z,70.87
2023-05-18T13:58:26.168Z,68.78
2023-05-18T14:00:54.692Z,67.97
2023-05-18T14:03:22.211Z,65.77
2023-05-18T14:05:49.755Z,65.85
2023-05-18T14:08:16.901Z,69.00
2023-05-18T14:10:43.976Z,66.38
2023-05-18T14:13:11.358Z,66.46
2023-05-18T14:15:38.543Z,66.93
2023-05-18T14:18:05.799Z,64.77
2023-05-18T14:20:34.074Z,64.64
2023-05-18T14:23:03.617Z,65.62
2023-05-18T14:25:31.558Z,62.00
2023-05-18T14:27:58.609Z,62.91
2023-05-18T14:30:25.713Z,64.38
2023-05-18T14:32:52.987Z,62.38
2023-05-18T14:35:20.154Z,58.94
2023-05-18T14:37:47.244Z,62.68
2023-05-18T14:40:14.402Z,61.98
2023-05-18T14:42:41.483Z,61.87
2023-05-18T14:45:09.116Z,63.10
2023-05-18T14:47:36.190Z,62.36
2023-05-18T14:50:03.447Z,62.49
2023-05-18T14:52:30.534Z,60.47
2023-05-18T14:54:57.584Z,60.10
2023-05-18T14:57:26.638Z,61.06
2023-05-18T14:59:54.111Z,62.61
2023-05-18T15:02:21.379Z,61.87
2023-05-18T15:04:48.612Z,64.77
2023-05-18T15:07:15.816Z,63.96
2023-05-18T15:09:42.984Z,65.50
2023-05-18T15:12:10.219Z,65.80
2023-05-18T15:14:38.246Z,66.41
2023-05-18T15:17:07.492Z,62.31
2023-05-18T15:19:34.696Z,60.49
2023-05-18T15:22:01.745Z,63.28
2023-05-18T15:24:28.911Z,69.33
2023-05-18T15:26:56.204Z,65.88
2023-05-18T15:29:23.632Z,67.22
2023-05-18T15:31:51.476Z,68.26
2023-05-18T15:34:18.671Z,68.23
2023-05-18T15:36:46.343Z,68.92
2023-05-18T15:39:13.538Z,67.55
2023-05-18T15:41:40.895Z,65.96
2023-05-18T15:44:07.916Z,65.50
2023-05-18T15:46:36.004Z,68.78
2023-05-18T15:49:04.131Z,58.50
2023-05-18T15:51:31.751Z,55.10
2023-05-18T15:53:58.867Z,54.00
2023-05-18T15:56:26.246Z,53.11
2023-05-18T15:58:53.431Z,53.26
2023-05-18T16:01:20.623Z,53.06
2023-05-18T16:03:47.817Z,51.49
2023-05-18T16:06:14.920Z,50.78
2023-05-18T16:08:41.942Z,50.43
2023-05-18T16:11:09.051Z,48.13
2023-05-18T16:13:36.135Z,47.84
2023-05-18T16:16:03.750Z,47.66
2023-05-18T16:18:30.883Z,47.86
2023-05-18T16:20:57.983Z,48.91
2023-05-18T16:23:24.977Z,49.52
2023-05-18T16:25:52.255Z,51.57
2023-05-18T16:28:19.420Z,52.22
2023-05-18T16:30:46.482Z,51.22
2023-05-18T16:33:13.502Z,52.66
2023-05-18T16:35:40.764Z,52.10
2023-05-18T16:38:07.815Z,52.46
2023-05-18T16:40:34.910Z,51.91
2023-05-18T16:43:02.011Z,50.63
2023-05-18T16:45:29.189Z,49.16
2023-05-18T16:47:57.155Z,49.43
2023-05-18T16:50:24.262Z,49.15
2023-05-18T16:52:51.381Z,48.29
2023-05-18T16:55:18.595Z,48.02
2023-05-18T16:57:45.764Z,47.84
2023-05-18T17:00:13.550Z,47.88
2023-05-18T17:02:40.789Z,47.55
2023-05-18T17:05:11.382Z,47.40
2023-05-18T17:07:38.730Z,46.91
2023-05-18T17:10:06.388Z,47.39
2023-05-18T17:12:33.882Z,47.43
2023-05-18T17:15:02.758Z,47.73
2023-05-18T17:17:30.253Z,47.86
2023-05-18T17:19:57.451Z,47.16
2023-05-18T17:22:24.623Z,46.99
2023-05-18T17:24:51.641Z,48.01
2023-05-18T17:27:18.713Z,47.79
2023-05-18T17:29:45.711Z,48.19
2023-05-18T17:32:12.702Z,48.19
2023-05-18T17:34:40.510Z,48.32
2023-05-18T17:37:07.561Z,50.43
2023-05-18T17:39:34.698Z,49.82
2023-05-18T17:42:01.944Z,48.83
2023-05-18T17:44:29.604Z,48.64
2023-05-18T17:46:56.912Z,50.34
2023-05-18T17:49:24.026Z,50.08
2023-05-18T17:51:52.455Z,48.86
2023-05-18T17:54:19.566Z,48.91
2023-05-18T17:56:46.824Z,49.48
2023-05-18T17:59:13.879Z,50.23
2023-05-18T18:01:41.053Z,51.03
2023-05-18T18:04:08.134Z,53.41
2023-05-18T18:06:38.413Z,51.92
2023-05-18T18:09:05.435Z,52.48
2023-05-18T18:11:32.574Z,52.96
2023-05-18T18:14:00.292Z,52.74
2023-05-18T18:16:27.415Z,53.01
2023-05-18T18:18:54.575Z,53.01
2023-05-18T18:21:21.709Z,51.35
2023-05-18T18:23:48.755Z,53.67
2023-05-18T18:26:15.898Z,54.63
2023-05-18T18:28:43.080Z,54.00
2023-05-18T18:31:10.094Z,53.82
2023-05-18T18:33:37.144Z,52.67
2023-05-18T18:36:05.879Z,54.67
2023-05-18T18:38:34.116Z,54.84
2023-05-18T18:41:04.460Z,53.95
2023-05-18T18:43:31.661Z,53.38
2023-05-18T18:45:59.736Z,55.12
2023-05-18T18:48:27.168Z,54.41
2023-05-18T18:50:54.394Z,53.97
2023-05-18T18:53:21.555Z,55.37
2023-05-18T18:55:48.698Z,55.60
2023-05-18T18:58:16.276Z,54.65
2023-05-18T19:00:43.812Z,56.67
2023-05-18T19:03:11.295Z,57.18
2023-05-18T19:05:39.265Z,57.43
2023-05-18T19:08:06.472Z,57.49
2023-05-18T19:10:34.448Z,57.42
2023-05-18T19:13:05.835Z,58.53
2023-05-18T19:15:36.917Z,60.28
2023-05-18T19:18:04.202Z,61.05
2023-05-18T19:20:31.375Z,59.84
2023-05-18T19:22:58.430Z,59.38
2023-05-18T19:25:26.431Z,60.47
2023-05-18T19:27:53.916Z,61.34
2023-05-18T19:30:22.034Z,62.84
2023-05-18T19:32:50.006Z,65.50
2023-05-18T19:35:19.776Z,66.77
2023-05-18T19:37:47.806Z,67.10
2023-05-18T19:40:15.430Z,64.63
2023-05-18T19:42:42.428Z,64.01
2023-05-18T19:45:09.604Z,62.21
2023-05-18T19:47:36.870Z,61.08
2023-05-18T19:50:04.733Z,60.77
2023-05-18T19:52:33.756Z,60.60
2023-05-18T19:55:02.456Z,60.34
2023-05-18T19:57:29.897Z,60.13
2023-05-18T19:59:57.983Z,59.92
2023-05-18T20:02:25.778Z,60.38
2023-05-18T20:04:53.834Z,60.76
2023-05-18T20:07:22.768Z,60.66
2023-05-18T20:09:53.136Z,60.29
2023-05-18T20:12:20.771Z,60.00
2023-05-18T20:14:48.615Z,60.72
2023-05-18T20:17:17.023Z,60.79
2023-05-18T20:19:49.941Z,60.18
2023-05-18T20:22:20.519Z,60.75
2023-05-18T20:24:49.089Z,60.67
2023-05-18T20:27:16.896Z,60.50
2023-05-18T20:29:44.017Z,59.90
2023-05-18T20:32:11.248Z,60.23
2023-05-18T20:34:38.457Z,60.50
2023-05-18T20:37:05.903Z,60.70
2023-05-18T20:39:33.105Z,61.97
2023-05-18T20:42:00.325Z,62.40
2023-05-18T20:44:28.936Z,62.32
2023-05-18T20:46:56.056Z,62.70
2023-05-18T20:49:25.070Z,63.35
2023-05-18T20:51:52.192Z,64.09
2023-05-18T20:54:21.460Z,64.66
2023-05-18T20:56:48.773Z,65.45
2023-05-18T20:59:16.363Z,65.95
2023-05-18T21:01:43.505Z,66.14
2023-05-18T21:04:12.734Z,67.14
2023-05-18T21:06:41.192Z,67.67
2023-05-18T21:09:08.539Z,68.12
2023-05-18T21:11:36.023Z,68.55
2023-05-18T21:14:03.140Z,69.26
2023-05-18T21:16:30.330Z,69.82
2023-05-18T21:18:57.547Z,70.38
2023-05-18T21:21:24.640Z,70.44
2023-05-18T21:23:52.038Z,70.51
2023-05-18T21:26:19.217Z,70.97
2023-05-18T21:28:46.222Z,71.65
2023-05-18T21:31:13.347Z,71.45
2023-05-18T21:33:42.099Z,71.73
2023-05-18T21:36:10.152Z,71.78
2023-05-18T21:38:37.284Z,72.33
2023-05-18T21:41:04.380Z,74.22
2023-05-18T21:43:31.419Z,74.94
2023-05-18T21:45:58.849Z,75.49
2023-05-18T21:48:25.979Z,75.53
2023-05-18T21:50:53.013Z,76.99
2023-05-18T21:53:20.036Z,76.99
2023-05-18T21:55:47.146Z,77.60
2023-05-18T21:58:14.149Z,78.39
2023-05-18T22:00:41.270Z,78.69
2023-05-18T22:03:08.434Z,78.90
2023-05-18T22:05:35.568Z,79.72
2023-05-18T22:08:02.638Z,79.47
2023-05-18T22:10:31.360Z,79.90
2023-05-18T22:12:58.602Z,79.97
2023-05-18T22:15:25.685Z,80.41
2023-05-18T22:17:54.156Z,81.54
2023-05-18T22:20:21.620Z,81.39
2023-05-18T22:22:48.835Z,81.82
2023-05-18T22:25:18.143Z,81.83
2023-05-18T22:27:45.847Z,82.20
2023-05-18T22:30:14.279Z,81.97
2023-05-18T22:32:41.378Z,83.30
2023-05-18T22:35:09.425Z,83.38
2023-05-18T22:37:36.821Z,83.40
2023-05-18T22:40:06.587Z,82.90
2023-05-18T22:42:33.886Z,82.08
2023-05-18T22:45:01.377Z,82.24
2023-05-18T22:47:29.733Z,82.27
2023-05-18T22:49:56.972Z,82.51
2023-05-18T22:52:24.030Z,82.00
2023-05-18T22:54:51.078Z,82.52
2023-05-18T22:57:18.121Z,83.10
2023-05-18T22:59:45.185Z,82.45
2023-05-18T23:02:12.454Z,81.77
2023-05-18T23:04:39.539Z,81.19
2023-05-18T23:07:06.822Z,81.44
2023-05-18T23:09:33.957Z,81.60
2023-05-18T23:12:01.292Z,81.86
2023-05-18T23:14:32.644Z,82.43
2023-05-18T23:17:00.580Z,82.23
2023-05-18T23:19:28.139Z,81.89
2023-05-18T23:21:56.116Z,81.95
2023-05-18T23:24:23.157Z,82.18
2023-05-18T23:26:50.229Z,82.41
2023-05-18T23:29:17.457Z,82.60
2023-05-18T23:31:44.537Z,82.25
2023-05-18T23:34:11.860Z,80.20
2023-05-18T23:36:42.736Z,78.01
2023-05-18T23:39:10.320Z,78.04
2023-05-18T23:41:37.915Z,79.67
2023-05-18T23:44:05.477Z,77.84
2023-05-18T23:46:32.781Z,78.35
2023-05-18T23:49:00.306Z,77.22
2023-05-18T23:51:32.173Z,77.92
2023-05-18T23:53:59.648Z,79.03
2023-05-18T23:56:26.944Z,78.63
2023-05-18T23:58:54.269Z,78.22
